createdAt,value
2016-12-21T00:00:51.586Z,70.39
2016-12-21T00:01:51.569Z,70.68
2016-12-21T00:02:51.550Z,71.15
2016-12-21T00:03:51.529Z,70.68
2016-12-21T00:04:51.509Z,72.19
2016-12-21T00:05:51.494Z,72.56
2016-12-21T00:06:51.470Z,73.69
2016-12-21T00:07:51.453Z,74.55
2016-12-21T00:08:51.433Z,75.3
2016-12-21T00:09:51.416Z,76.06
2016-12-21T00:10:51.396Z,77.28
2016-12-21T00:11:51.382Z,78.79
2016-12-21T00:12:51.359Z,81.81
2016-12-21T00:13:51.337Z,82
2016-12-21T00:14:51.319Z,83.04
2016-12-21T00:15:51.297Z,81.53
2016-12-21T00:16:51.281Z,82.38
2016-12-21T00:17:51.260Z,82.47
2016-12-21T00:18:51.240Z,82.1
2016-12-21T00:19:51.223Z,83.23
2016-12-21T00:20:51.201Z,83.8
2016-12-21T00:21:51.184Z,84.08
2016-12-21T00:22:51.448Z,83.61
2016-12-21T00:23:51.382Z,84.27
2016-12-21T00:24:51.126Z,83.98
2016-12-21T00:25:51.607Z,84.27
2016-12-21T00:26:51.088Z,84.64
2016-12-21T00:27:51.331Z,84.74
2016-12-21T00:28:51.052Z,84.74
2016-12-21T00:29:51.031Z,84.55
2016-12-21T00:30:51.013Z,84.36
2016-12-21T00:31:50.992Z,85.77
2016-12-21T00:32:50.971Z,86.44
2016-12-21T00:33:50.956Z,87.57
2016-12-21T00:34:50.936Z,87.66
2016-12-21T00:35:50.917Z,88.42
2016-12-21T00:36:50.898Z,88.46
2016-12-21T00:37:50.879Z,89.69
2016-12-21T00:38:50.857Z,91.11
2016-12-21T00:39:50.840Z,92.24
2016-12-21T00:40:50.821Z,91.49
2016-12-21T00:41:50.802Z,91.58
2016-12-21T00:42:50.782Z,93.09
2016-12-21T00:43:50.761Z,92.14
2016-12-21T00:44:50.747Z,92.14
2016-12-21T00:45:50.726Z,91.58
2016-12-21T00:46:50.706Z,90.73
2016-12-21T00:47:50.690Z,90.45
2016-12-21T00:48:50.670Z,90.07
2016-12-21T00:49:50.652Z,89.88
2016-12-21T00:50:50.633Z,90.26
2016-12-21T00:51:50.612Z,89.4
2016-12-21T00:52:50.592Z,90.07
2016-12-21T00:53:50.576Z,90.16
2016-12-21T00:54:50.557Z,90.35
2016-12-21T00:55:50.535Z,91.58
2016-12-21T00:56:50.517Z,93.47
2016-12-21T00:57:50.500Z,91.11
2016-12-21T00:58:50.515Z,91.86
2016-12-21T00:59:50.460Z,92.14
2016-12-21T01:00:50.550Z,92.71
2016-12-21T01:01:50.423Z,92.14
2016-12-21T01:02:50.402Z,91.86
2016-12-21T01:03:50.384Z,90.54
2016-12-21T01:04:50.366Z,90.64
2016-12-21T01:05:50.346Z,92.61
2016-12-21T01:06:50.326Z,93.18
2016-12-21T01:07:50.309Z,92.61
2016-12-21T01:08:50.291Z,91.67
2016-12-21T01:09:50.272Z,91.67
2016-12-21T01:10:50.255Z,91.49
2016-12-21T01:11:50.235Z,90.64
2016-12-21T01:12:50.385Z,89.88
2016-12-21T01:13:50.196Z,90.54
2016-12-21T01:14:50.175Z,91.2
2016-12-21T01:15:50.160Z,91.58
2016-12-21T01:16:50.140Z,91.3
2016-12-21T01:17:50.118Z,90.54
2016-12-21T01:18:50.098Z,90.26
2016-12-21T01:19:50.084Z,88.98
2016-12-21T01:20:50.061Z,87.95
2016-12-21T01:21:50.043Z,86.63
2016-12-21T01:22:50.025Z,86.57
2016-12-21T01:23:50.004Z,86.06
2016-12-21T01:24:50.377Z,84.83
2016-12-21T01:25:49.966Z,83.33
2016-12-21T01:26:49.950Z,84.03
2016-12-21T01:27:50.356Z,83.65
2016-12-21T01:28:49.910Z,84.31
2016-12-21T01:29:49.896Z,84.88
2016-12-21T01:30:50.282Z,86.01
2016-12-21T01:31:49.852Z,85.35
2016-12-21T01:32:49.833Z,84.22
2016-12-21T01:33:50.234Z,84.5
2016-12-21T01:34:49.796Z,84.78
2016-12-21T01:35:49.776Z,85.35
2016-12-21T01:36:50.042Z,86.19
2016-12-21T01:37:49.739Z,84.78
2016-12-21T01:38:49.721Z,84.27
2016-12-21T01:39:50.093Z,84.03
2016-12-21T01:40:49.681Z,83.51
2016-12-21T01:41:49.663Z,83.61
2016-12-21T01:42:50.050Z,83.7
2016-12-21T01:43:49.626Z,82.85
2016-12-21T01:44:49.612Z,82.76
2016-12-21T01:45:49.982Z,81.53
2016-12-21T01:46:49.566Z,81.72
2016-12-21T01:47:49.550Z,81.72
2016-12-21T01:48:49.936Z,82.85
2016-12-21T01:49:49.513Z,83.7
2016-12-21T01:50:49.939Z,84.17
2016-12-21T01:51:49.472Z,83.98
2016-12-21T01:52:49.460Z,84.08
2016-12-21T01:53:49.549Z,83.89
2016-12-21T01:54:49.415Z,84.27
2016-12-21T01:55:49.398Z,82.66
2016-12-21T01:56:49.573Z,83.51
2016-12-21T01:57:49.358Z,83.8
2016-12-21T01:58:49.341Z,83.8
2016-12-21T01:59:49.420Z,84.17
2016-12-21T02:00:49.301Z,84.55
2016-12-21T02:01:49.282Z,84.74
2016-12-21T02:02:49.262Z,86.15
2016-12-21T02:03:49.242Z,85.3
2016-12-21T02:04:49.224Z,86.91
2016-12-21T02:05:49.205Z,86.82
2016-12-21T02:06:49.188Z,87.1
2016-12-21T02:07:49.167Z,87.29
2016-12-21T02:08:49.147Z,86.82
2016-12-21T02:09:49.132Z,86.63
2016-12-21T02:10:49.511Z,86.82
2016-12-21T02:11:49.093Z,86.53
2016-12-21T02:12:49.074Z,86.15
2016-12-21T02:13:49.193Z,86.38
2016-12-21T02:14:49.036Z,86.82
2016-12-21T02:15:49.013Z,87.62
2016-12-21T02:16:49.396Z,87.24
2016-12-21T02:17:48.982Z,87.52
2016-12-21T02:18:49.044Z,87.57
2016-12-21T02:19:48.941Z,87.14
2016-12-21T02:20:48.919Z,87.24
2016-12-21T02:21:49.077Z,87.38
2016-12-21T02:22:48.888Z,87.48
2016-12-21T02:23:48.865Z,87.57
2016-12-21T02:24:49.190Z,88.04
2016-12-21T02:25:48.823Z,87.57
2016-12-21T02:26:48.806Z,88.23
2016-12-21T02:27:49.176Z,87.29
2016-12-21T02:28:48.766Z,86.63
2016-12-21T02:29:48.749Z,86.53
2016-12-21T02:30:48.729Z,85.59
2016-12-21T02:31:48.709Z,85.96
2016-12-21T02:32:48.690Z,85.21
2016-12-21T02:33:48.675Z,85.21
2016-12-21T02:34:48.660Z,84.83
2016-12-21T02:35:48.635Z,85.16
2016-12-21T02:36:48.614Z,85.3
2016-12-21T02:37:48.595Z,84.74
2016-12-21T02:38:48.577Z,84.08
2016-12-21T02:39:48.560Z,83.98
2016-12-21T02:40:48.539Z,83.42
2016-12-21T02:41:48.668Z,82.66
2016-12-21T02:42:48.499Z,82.95
2016-12-21T02:43:48.872Z,83.33
2016-12-21T02:44:48.465Z,83.46
2016-12-21T02:45:48.446Z,82.95
2016-12-21T02:46:48.978Z,83.55
2016-12-21T02:47:48.409Z,83.84
2016-12-21T02:48:48.388Z,84.22
2016-12-21T02:49:48.830Z,84.22
2016-12-21T02:50:48.352Z,82.99
2016-12-21T02:51:48.331Z,83.17
2016-12-21T02:52:48.718Z,82.61
2016-12-21T02:53:48.295Z,82.89
2016-12-21T02:54:48.273Z,83.17
2016-12-21T02:55:48.659Z,82.8
2016-12-21T02:56:48.237Z,83.46
2016-12-21T02:57:48.643Z,83.74
2016-12-21T02:58:48.197Z,83.36
2016-12-21T02:59:48.205Z,84.31
2016-12-21T03:00:48.566Z,85.53
2016-12-21T03:01:48.139Z,87.71
2016-12-21T03:02:48.121Z,88.93
2016-12-21T03:03:48.518Z,88.93
2016-12-21T03:04:48.087Z,90.64
2016-12-21T03:05:48.063Z,92.14
2016-12-21T03:06:48.192Z,92.61
2016-12-21T03:07:48.027Z,92.71
2016-12-21T03:08:48.009Z,92.43
2016-12-21T03:09:47.990Z,92.14
2016-12-21T03:10:47.969Z,91.49
2016-12-21T03:11:47.949Z,91.2
2016-12-21T03:12:47.932Z,91.2
2016-12-21T03:13:47.912Z,89.97
2016-12-21T03:14:47.895Z,89.97
2016-12-21T03:15:47.874Z,89.03
2016-12-21T03:16:47.853Z,88.75
2016-12-21T03:17:47.837Z,88.46
2016-12-21T03:18:47.816Z,87.62
2016-12-21T03:19:47.799Z,87.33
2016-12-21T03:20:47.777Z,84.59
2016-12-21T03:21:47.758Z,84.69
2016-12-21T03:22:47.742Z,85.06
2016-12-21T03:23:47.720Z,84.12
2016-12-21T03:24:47.701Z,84.59
2016-12-21T03:25:47.683Z,86.19
2016-12-21T03:26:47.663Z,86.19
2016-12-21T03:27:47.643Z,87.52
2016-12-21T03:28:47.625Z,86.86
2016-12-21T03:29:47.606Z,88.46
2016-12-21T03:30:47.586Z,87.14
2016-12-21T03:31:47.569Z,87.71
2016-12-21T03:32:47.549Z,88.09
2016-12-21T03:33:47.529Z,88.84
2016-12-21T03:34:47.510Z,87.33
2016-12-21T03:35:47.492Z,87.43
2016-12-21T03:36:47.471Z,89.03
2016-12-21T03:37:47.454Z,88.56
2016-12-21T03:38:47.437Z,88.18
2016-12-21T03:39:47.414Z,87.71
2016-12-21T03:40:47.395Z,88.18
2016-12-21T03:41:47.376Z,87.99
2016-12-21T03:42:47.361Z,87.33
2016-12-21T03:43:47.338Z,87.99
2016-12-21T03:44:47.321Z,88.37
2016-12-21T03:45:47.301Z,88.56
2016-12-21T03:46:47.283Z,90.45
2016-12-21T03:47:47.259Z,90.54
2016-12-21T03:48:47.246Z,90.82
2016-12-21T03:49:47.224Z,91.11
2016-12-21T03:50:47.203Z,90.82
2016-12-21T03:51:47.185Z,89.97
2016-12-21T03:52:47.168Z,90.35
2016-12-21T03:53:47.151Z,92.33
2016-12-21T03:54:47.129Z,92.61
2016-12-21T03:55:47.109Z,92.43
2016-12-21T03:56:47.122Z,91.86
2016-12-21T03:57:47.077Z,91.77
2016-12-21T03:58:47.054Z,91.58
2016-12-21T03:59:47.036Z,92.05
2016-12-21T04:00:47.019Z,91.77
2016-12-21T04:01:46.996Z,91.67
2016-12-21T04:02:46.975Z,91.67
2016-12-21T04:03:46.960Z,90.64
2016-12-21T04:04:46.941Z,89.22
2016-12-21T04:05:46.921Z,88.09
2016-12-21T04:06:46.902Z,87.43
2016-12-21T04:07:46.885Z,86.95
2016-12-21T04:08:46.865Z,87.71
2016-12-21T04:09:46.847Z,87.8
2016-12-21T04:10:46.828Z,86.86
2016-12-21T04:11:46.807Z,86.57
2016-12-21T04:12:46.787Z,86.86
2016-12-21T04:13:46.770Z,86.86
2016-12-21T04:14:46.751Z,86.38
2016-12-21T04:15:46.734Z,86.38
2016-12-21T04:16:46.711Z,86.67
2016-12-21T04:17:46.695Z,86.19
2016-12-21T04:18:46.675Z,85.87
2016-12-21T04:19:46.657Z,84.88
2016-12-21T04:20:46.639Z,84.64
2016-12-21T04:21:46.621Z,83.89
2016-12-21T04:22:46.603Z,82.28
2016-12-21T04:23:46.580Z,81.72
2016-12-21T04:24:46.564Z,82.19
2016-12-21T04:25:46.546Z,81.43
2016-12-21T04:26:46.525Z,80.87
2016-12-21T04:27:46.507Z,80.68
2016-12-21T04:28:46.491Z,80.87
2016-12-21T04:29:46.495Z,79.93
2016-12-21T04:30:46.450Z,79.55
2016-12-21T04:31:46.432Z,81.95
2016-12-21T04:32:46.412Z,82.8
2016-12-21T04:33:46.394Z,81.62
2016-12-21T04:34:46.373Z,82
2016-12-21T04:35:46.353Z,82.7
2016-12-21T04:36:46.338Z,82.14
2016-12-21T04:37:46.316Z,81.72
2016-12-21T04:38:46.298Z,81.67
2016-12-21T04:39:46.280Z,82.47
2016-12-21T04:40:46.259Z,83.04
2016-12-21T04:41:46.241Z,83.42
2016-12-21T04:42:46.220Z,82.95
2016-12-21T04:43:46.200Z,82.38
2016-12-21T04:44:46.182Z,82.61
2016-12-21T04:45:46.165Z,83.04
2016-12-21T04:46:46.143Z,82.8
2016-12-21T04:47:46.126Z,83.17
2016-12-21T04:48:46.107Z,82.51
2016-12-21T04:49:46.089Z,82.38
2016-12-21T04:50:46.070Z,82.7
2016-12-21T04:51:46.049Z,83.23
2016-12-21T04:52:46.031Z,83.08
2016-12-21T04:53:46.010Z,83.36
2016-12-21T04:54:45.992Z,83.27
2016-12-21T04:55:45.974Z,83.55
2016-12-21T04:56:45.955Z,84.12
2016-12-21T04:57:45.937Z,84.08
2016-12-21T04:58:45.917Z,83.7
2016-12-21T04:59:45.897Z,82.76
2016-12-21T05:00:45.879Z,83.14
2016-12-21T05:01:45.862Z,82.95
2016-12-21T05:02:45.839Z,83.04
2016-12-21T05:03:45.825Z,82.66
2016-12-21T05:04:45.803Z,82.1
2016-12-21T05:05:46.103Z,82
2016-12-21T05:06:45.765Z,82
2016-12-21T05:07:45.744Z,82
2016-12-21T05:08:45.726Z,81.24
2016-12-21T05:09:45.707Z,80.3
2016-12-21T05:10:45.688Z,80.21
2016-12-21T05:11:45.668Z,80.02
2016-12-21T05:12:45.653Z,80.58
2016-12-21T05:13:45.631Z,80.49
2016-12-21T05:14:45.611Z,80.68
2016-12-21T05:15:45.592Z,80.4
2016-12-21T05:16:45.573Z,80.87
2016-12-21T05:17:45.556Z,80.4
2016-12-21T05:18:45.536Z,79.74
2016-12-21T05:19:45.516Z,78.42
2016-12-21T05:20:45.501Z,78.42
2016-12-21T05:21:45.478Z,79.08
2016-12-21T05:22:45.458Z,78.89
2016-12-21T05:23:45.444Z,79.08
2016-12-21T05:24:45.419Z,77.19
2016-12-21T05:25:45.401Z,77.66
2016-12-21T05:26:45.384Z,78.79
2016-12-21T05:27:45.364Z,77.66
2016-12-21T05:28:45.345Z,78.51
2016-12-21T05:29:45.325Z,78.42
2016-12-21T05:30:45.308Z,76.9
2016-12-21T05:31:45.312Z,77.28
2016-12-21T05:32:45.269Z,77.37
2016-12-21T05:33:45.254Z,77.37
2016-12-21T05:34:45.228Z,77.19
2016-12-21T05:35:45.214Z,76.62
2016-12-21T05:36:45.191Z,75.49
2016-12-21T05:37:45.175Z,75.49
2016-12-21T05:38:45.156Z,75.49
2016-12-21T05:39:45.135Z,75.59
2016-12-21T05:40:45.115Z,75.87
2016-12-21T05:41:45.096Z,75.87
2016-12-21T05:42:45.076Z,75.4
2016-12-21T05:43:45.062Z,75.49
2016-12-21T05:44:45.039Z,75.49
2016-12-21T05:45:45.020Z,74.83
2016-12-21T05:46:45.003Z,75.68
2016-12-21T05:47:44.979Z,76.06
2016-12-21T05:48:44.964Z,75.59
2016-12-21T05:49:44.941Z,74.45
2016-12-21T05:50:44.923Z,74.17
2016-12-21T05:51:44.905Z,74.36
2016-12-21T05:52:44.885Z,74.17
2016-12-21T05:53:44.867Z,73.98
2016-12-21T05:54:44.846Z,74.07
2016-12-21T05:55:44.828Z,73.51
2016-12-21T05:56:44.813Z,73.51
2016-12-21T05:57:44.792Z,73.32
2016-12-21T05:58:44.771Z,73.51
2016-12-21T05:59:44.751Z,74.26
2016-12-21T06:00:44.733Z,73.69
2016-12-21T06:01:44.714Z,74.17
2016-12-21T06:02:44.693Z,73.88
2016-12-21T06:03:44.675Z,73.79
2016-12-21T06:04:44.658Z,73.41
2016-12-21T06:05:44.637Z,73.03
2016-12-21T06:06:44.619Z,73.03
2016-12-21T06:07:44.601Z,73.32
2016-12-21T06:08:44.584Z,72.94
2016-12-21T06:09:44.560Z,73.51
2016-12-21T06:10:44.542Z,73.69
2016-12-21T06:11:44.519Z,74.26
2016-12-21T06:12:44.501Z,74.17
2016-12-21T06:13:44.483Z,74.17
2016-12-21T06:14:44.463Z,74.07
2016-12-21T06:15:44.476Z,75.21
2016-12-21T06:16:44.423Z,73.69
2016-12-21T06:17:44.404Z,74.26
2016-12-21T06:18:44.386Z,73.79
2016-12-21T06:19:44.368Z,74.07
2016-12-21T06:20:44.348Z,74.64
2016-12-21T06:21:44.329Z,74.92
2016-12-21T06:22:44.309Z,74.74
2016-12-21T06:23:44.288Z,74.83
2016-12-21T06:24:44.269Z,74.36
2016-12-21T06:25:44.250Z,74.83
2016-12-21T06:26:44.231Z,74.36
2016-12-21T06:27:44.211Z,74.17
2016-12-21T06:28:44.194Z,74.92
2016-12-21T06:29:44.173Z,73.98
2016-12-21T06:30:44.154Z,74.36
2016-12-21T06:31:44.136Z,74.07
2016-12-21T06:32:44.114Z,74.55
2016-12-21T06:33:44.123Z,74.17
2016-12-21T06:34:44.075Z,74.45
2016-12-21T06:35:44.059Z,74.55
2016-12-21T06:36:44.039Z,73.32
2016-12-21T06:37:44.016Z,72.28
2016-12-21T06:38:43.995Z,72.28
2016-12-21T06:39:43.979Z,71.81
2016-12-21T06:40:43.961Z,72
2016-12-21T06:41:43.944Z,71.53
2016-12-21T06:42:43.923Z,71.53
2016-12-21T06:43:43.902Z,70.49
2016-12-21T06:44:43.888Z,70.96
2016-12-21T06:45:43.863Z,71.53
2016-12-21T06:46:43.843Z,71.15
2016-12-21T06:47:43.827Z,71.43
2016-12-21T06:48:43.806Z,70.49
2016-12-21T06:49:43.786Z,71.25
2016-12-21T06:50:43.765Z,70.68
2016-12-21T06:51:43.750Z,70.68
2016-12-21T06:52:43.730Z,70.3
2016-12-21T06:53:43.709Z,70.2
2016-12-21T06:54:43.691Z,69.54
2016-12-21T06:55:43.674Z,68.79
2016-12-21T06:56:43.655Z,69.64
2016-12-21T06:57:43.631Z,69.64
2016-12-21T06:58:43.614Z,69.54
2016-12-21T06:59:43.595Z,68.51
2016-12-21T07:00:43.574Z,68.6
2016-12-21T07:01:43.556Z,67.85
2016-12-21T07:02:43.537Z,66.34
2016-12-21T07:03:43.516Z,66.52
2016-12-21T07:04:43.501Z,67.19
2016-12-21T07:05:43.477Z,66.9
2016-12-21T07:06:43.459Z,67.09
2016-12-21T07:07:43.439Z,66.62
2016-12-21T07:08:43.420Z,66.52
2016-12-21T07:09:43.401Z,67.47
2016-12-21T07:10:43.382Z,67.75
2016-12-21T07:11:43.361Z,67.47
2016-12-21T07:12:43.342Z,66.71
2016-12-21T07:13:43.321Z,65.67
2016-12-21T07:14:43.306Z,66.43
2016-12-21T07:15:43.283Z,66.81
2016-12-21T07:16:43.263Z,66.34
2016-12-21T07:17:43.246Z,65.96
2016-12-21T07:18:43.227Z,66.05
2016-12-21T07:19:43.208Z,65.48
2016-12-21T07:20:43.188Z,65.2
2016-12-21T07:21:43.168Z,65.39
2016-12-21T07:22:43.183Z,65.86
2016-12-21T07:23:43.129Z,65.67
2016-12-21T07:24:43.115Z,65.3
2016-12-21T07:25:43.092Z,65.77
2016-12-21T07:26:43.071Z,65.67
2016-12-21T07:27:43.053Z,66.15
2016-12-21T07:28:43.033Z,66.15
2016-12-21T07:29:43.016Z,65.01
2016-12-21T07:30:42.996Z,64.45
2016-12-21T07:31:42.976Z,64.54
2016-12-21T07:32:42.958Z,64.17
2016-12-21T07:33:42.939Z,63.98
2016-12-21T07:34:42.924Z,63.98
2016-12-21T07:35:42.899Z,64.07
2016-12-21T07:36:42.880Z,63.51
2016-12-21T07:37:42.863Z,63.22
2016-12-21T07:38:42.839Z,63.32
2016-12-21T07:39:42.827Z,64.36
2016-12-21T07:40:42.803Z,64.92
2016-12-21T07:41:42.786Z,65.01
2016-12-21T07:42:42.765Z,66.15
2016-12-21T07:43:42.748Z,68.04
2016-12-21T07:44:42.725Z,68.7
2016-12-21T07:45:42.706Z,70.02
2016-12-21T07:46:42.688Z,70.77
2016-12-21T07:47:42.671Z,70.68
2016-12-21T07:48:42.648Z,70.77
2016-12-21T07:49:42.631Z,70.58
2016-12-21T07:50:42.613Z,71.91
2016-12-21T07:51:42.593Z,70.87
2016-12-21T07:52:42.575Z,70.49
2016-12-21T07:53:42.555Z,70.77
2016-12-21T07:54:42.540Z,70.39
2016-12-21T07:55:42.518Z,70.49
2016-12-21T07:56:42.501Z,70.49
2016-12-21T07:57:42.479Z,70.3
2016-12-21T07:58:42.462Z,69.83
2016-12-21T07:59:42.442Z,70.2
2016-12-21T08:00:42.423Z,69.54
2016-12-21T08:01:42.403Z,69.64
2016-12-21T08:02:42.383Z,70.2
2016-12-21T08:03:42.366Z,70.3
2016-12-21T08:04:42.348Z,70.58
2016-12-21T08:05:42.328Z,70.68
2016-12-21T08:06:42.306Z,70.49
2016-12-21T08:07:42.288Z,70.3
2016-12-21T08:08:42.272Z,70.77
2016-12-21T08:09:42.252Z,70.02
2016-12-21T08:10:42.263Z,68.6
2016-12-21T08:11:42.215Z,68.41
2016-12-21T08:12:42.196Z,68.04
2016-12-21T08:13:42.176Z,68.51
2016-12-21T08:14:42.157Z,69.17
2016-12-21T08:15:42.137Z,70.39
2016-12-21T08:16:42.120Z,70.11
2016-12-21T08:17:42.100Z,70.39
2016-12-21T08:18:42.080Z,70.49
2016-12-21T08:19:42.061Z,70.68
2016-12-21T08:20:42.042Z,70.68
2016-12-21T08:21:42.024Z,71.34
2016-12-21T08:22:42.007Z,71.25
2016-12-21T08:23:41.988Z,71.72
2016-12-21T08:24:41.969Z,72.19
2016-12-21T08:25:41.950Z,73.22
2016-12-21T08:26:41.929Z,73.41
2016-12-21T08:27:41.911Z,73.41
2016-12-21T08:28:41.890Z,73.79
2016-12-21T08:29:41.877Z,73.6
2016-12-21T08:30:41.854Z,73.51
2016-12-21T08:31:41.834Z,72.56
2016-12-21T08:32:41.815Z,72.09
2016-12-21T08:33:41.798Z,72.66
2016-12-21T08:34:41.777Z,72.56
2016-12-21T08:35:41.758Z,72.85
2016-12-21T08:36:41.740Z,73.03
2016-12-21T08:37:41.720Z,73.13
2016-12-21T08:38:41.701Z,73.51
2016-12-21T08:39:41.681Z,73.69
2016-12-21T08:40:41.663Z,73.98
2016-12-21T08:41:41.645Z,74.26
2016-12-21T08:42:41.624Z,74.64
2016-12-21T08:43:41.606Z,74.92
2016-12-21T08:44:41.588Z,74.17
2016-12-21T08:45:41.569Z,73.98
2016-12-21T08:46:41.548Z,73.51
2016-12-21T08:47:41.529Z,72.94
2016-12-21T08:48:41.512Z,71.62
2016-12-21T08:49:41.493Z,71.62
2016-12-21T08:50:41.472Z,71.72
2016-12-21T08:51:41.453Z,71.62
2016-12-21T08:52:41.436Z,71.91
2016-12-21T08:53:41.413Z,72.28
2016-12-21T08:54:41.398Z,72.47
2016-12-21T08:55:41.379Z,72.28
2016-12-21T08:56:41.359Z,72.47
2016-12-21T08:57:41.388Z,72.28
2016-12-21T08:58:41.320Z,72.32
2016-12-21T08:59:41.305Z,72.88
2016-12-21T09:00:41.314Z,73.51
2016-12-21T09:01:41.263Z,73.6
2016-12-21T09:02:41.246Z,73.64
2016-12-21T09:03:41.226Z,73.83
2016-12-21T09:04:41.215Z,73.83
2016-12-21T09:05:41.189Z,72.69
2016-12-21T09:06:41.171Z,72.79
2016-12-21T09:07:41.152Z,72.88
2016-12-21T09:08:41.133Z,73.36
2016-12-21T09:09:41.115Z,73.26
2016-12-21T09:10:41.094Z,72.6
2016-12-21T09:11:41.105Z,72.32
2016-12-21T09:12:41.056Z,72.22
2016-12-21T09:13:41.039Z,72.79
2016-12-21T09:14:41.020Z,72.88
2016-12-21T09:15:41.000Z,72.69
2016-12-21T09:16:40.982Z,72.13
2016-12-21T09:17:40.963Z,72.41
2016-12-21T09:18:40.944Z,73.45
2016-12-21T09:19:40.927Z,73.64
2016-12-21T09:20:40.910Z,73.83
2016-12-21T09:21:40.888Z,74.3
2016-12-21T09:22:40.873Z,74.3
2016-12-21T09:23:40.851Z,74.3
2016-12-21T09:24:40.832Z,74.49
2016-12-21T09:25:40.814Z,74.11
2016-12-21T09:26:40.795Z,74.21
2016-12-21T09:27:40.777Z,74.96
2016-12-21T09:28:40.759Z,75.71
2016-12-21T09:29:40.738Z,76.38
2016-12-21T09:30:40.720Z,77.13
2016-12-21T09:31:40.705Z,77.98
2016-12-21T09:32:40.683Z,77.51
2016-12-21T09:33:40.666Z,78.17
2016-12-21T09:34:40.679Z,78.27
2016-12-21T09:35:40.658Z,79.02
2016-12-21T09:36:40.610Z,78.64
2016-12-21T09:37:40.593Z,78.36
2016-12-21T09:38:40.572Z,78.36
2016-12-21T09:39:40.553Z,78.64
2016-12-21T09:40:40.535Z,79.4
2016-12-21T09:41:40.519Z,80.25
2016-12-21T09:42:40.498Z,80.06
2016-12-21T09:43:40.481Z,80.44
2016-12-21T09:44:40.464Z,82.14
2016-12-21T09:45:40.444Z,82.89
2016-12-21T09:46:40.427Z,83.08
2016-12-21T09:47:40.408Z,83.36
2016-12-21T09:48:40.391Z,82.89
2016-12-21T09:49:40.370Z,84.12
2016-12-21T09:50:40.355Z,84.59
2016-12-21T09:51:40.336Z,85.35
2016-12-21T09:52:40.316Z,85.96
2016-12-21T09:53:40.298Z,85.91
2016-12-21T09:54:40.280Z,86.52
2016-12-21T09:55:40.261Z,86.62
2016-12-21T09:56:40.248Z,85.44
2016-12-21T09:57:40.257Z,84.16
2016-12-21T09:58:40.210Z,84.35
2016-12-21T09:59:40.189Z,85.01
2016-12-21T10:00:40.171Z,85.96
2016-12-21T10:01:40.153Z,86.52
2016-12-21T10:02:40.133Z,86.8
2016-12-21T10:03:40.118Z,87.18
2016-12-21T10:04:40.098Z,87.37
2016-12-21T10:05:40.079Z,87.09
2016-12-21T10:06:40.062Z,87.66
2016-12-21T10:07:40.043Z,89.17
2016-12-21T10:08:40.026Z,89.17
2016-12-21T10:09:40.008Z,89.26
2016-12-21T10:10:39.989Z,89.26
2016-12-21T10:11:39.973Z,89.17
2016-12-21T10:12:39.954Z,88.42
2016-12-21T10:13:39.935Z,88.42
2016-12-21T10:14:39.920Z,88.6
2016-12-21T10:15:39.901Z,88.89
2016-12-21T10:16:39.882Z,89.54
2016-12-21T10:17:39.863Z,90.11
2016-12-21T10:18:39.846Z,91.15
2016-12-21T10:19:39.829Z,91.25
2016-12-21T10:20:39.808Z,92
2016-12-21T10:21:39.793Z,91.72
2016-12-21T10:22:39.776Z,91.63
2016-12-21T10:23:39.756Z,93.42
2016-12-21T10:24:39.736Z,93.61
2016-12-21T10:25:39.720Z,93.32
2016-12-21T10:26:39.702Z,94.46
2016-12-21T10:27:39.685Z,94.37
2016-12-21T10:28:39.667Z,94.08
2016-12-21T10:29:39.649Z,95.31
2016-12-21T10:30:39.632Z,95.78
2016-12-21T10:31:39.616Z,95.31
2016-12-21T10:32:39.597Z,94.37
2016-12-21T10:33:39.580Z,93.89
2016-12-21T10:34:39.564Z,93.51
2016-12-21T10:35:39.545Z,93.42
2016-12-21T10:36:39.532Z,94.27
2016-12-21T10:37:39.507Z,95.03
2016-12-21T10:38:39.492Z,95.31
2016-12-21T10:39:39.472Z,96.25
2016-12-21T10:40:39.456Z,97.58
2016-12-21T10:41:39.752Z,97.86
2016-12-21T10:42:39.419Z,98.24
2016-12-21T10:43:39.401Z,97.96
2016-12-21T10:44:39.385Z,98.05
2016-12-21T10:45:39.369Z,98.52
2016-12-21T10:46:39.351Z,98.33
2016-12-21T10:47:39.331Z,98.24
2016-12-21T10:48:39.314Z,98
2016-12-21T10:49:39.295Z,97.34
2016-12-21T10:50:39.279Z,97.25
2016-12-21T10:51:39.261Z,96.68
2016-12-21T10:52:39.242Z,96.87
2016-12-21T10:53:39.229Z,97.34
2016-12-21T10:54:39.205Z,98.28
2016-12-21T10:55:39.195Z,99.52
2016-12-21T10:56:39.171Z,99.52
2016-12-21T10:57:39.159Z,99.42
2016-12-21T10:58:39.137Z,98.47
2016-12-21T10:59:39.122Z,98.47
2016-12-21T11:00:39.102Z,98.38
2016-12-21T11:01:39.085Z,98.28
2016-12-21T11:02:39.065Z,98.85
2016-12-21T11:03:39.049Z,99.14
2016-12-21T11:04:39.032Z,98.95
2016-12-21T11:05:39.013Z,99.52
2016-12-21T11:06:38.996Z,99.99
2016-12-21T11:07:38.985Z,99.99
2016-12-21T11:08:38.959Z,99.99
2016-12-21T11:09:38.944Z,99.99
2016-12-21T11:10:38.926Z,99.99
2016-12-21T11:11:38.909Z,99.99
2016-12-21T11:12:38.892Z,99.99
2016-12-21T11:13:38.874Z,99.99
2016-12-21T11:14:38.857Z,99.99
2016-12-21T11:15:38.840Z,99.99
2016-12-21T11:16:38.822Z,99.99
2016-12-21T11:17:38.806Z,99.99
2016-12-21T11:18:38.787Z,99.99
2016-12-21T11:19:38.771Z,99.99
2016-12-21T11:20:38.753Z,99.99
2016-12-21T11:21:38.736Z,99.99
2016-12-21T11:22:38.718Z,99.99
2016-12-21T11:23:38.702Z,99.99
2016-12-21T11:24:38.684Z,99.99
2016-12-21T11:25:38.667Z,99.99
2016-12-21T11:26:38.649Z,99.99
2016-12-21T11:27:38.633Z,99.99
2016-12-21T11:28:38.616Z,99.99
2016-12-21T11:29:38.599Z,99.99
2016-12-21T11:30:38.581Z,99.99
2016-12-21T11:31:38.563Z,99.99
2016-12-21T11:32:38.546Z,99.99
2016-12-21T11:33:38.529Z,99.99
2016-12-21T11:34:38.513Z,99.99
2016-12-21T11:35:38.496Z,99.99
2016-12-21T11:36:38.480Z,99.99
2016-12-21T11:37:38.460Z,99.99
2016-12-21T11:38:38.442Z,99.99
2016-12-21T11:39:38.427Z,99.99
2016-12-21T11:40:38.411Z,99.99
2016-12-21T11:41:38.390Z,99.99
2016-12-21T11:42:38.376Z,99.99
2016-12-21T11:43:38.358Z,99.99
2016-12-21T11:44:38.345Z,99.99
2016-12-21T11:45:38.353Z,99.99
2016-12-21T11:46:38.308Z,99.99
2016-12-21T11:47:38.290Z,99.99
2016-12-21T11:48:38.272Z,99.99
2016-12-21T11:49:38.256Z,99.99
2016-12-21T11:50:38.237Z,99.99
2016-12-21T11:51:38.224Z,99.99
2016-12-21T11:52:38.206Z,99.99
2016-12-21T11:53:38.198Z,99.99
2016-12-21T11:54:38.169Z,99.99
2016-12-21T11:55:38.186Z,99.99
2016-12-21T11:56:38.137Z,99.99
2016-12-21T11:57:38.119Z,99.99
2016-12-21T11:58:38.105Z,99.99
2016-12-21T11:59:38.088Z,99.99
2016-12-21T12:00:38.070Z,99.99
2016-12-21T12:01:38.051Z,99.99
2016-12-21T12:02:38.035Z,99.99
2016-12-21T12:03:38.017Z,99.99
2016-12-21T12:04:38.005Z,99.99
2016-12-21T12:05:37.982Z,99.99
2016-12-21T12:06:37.965Z,99.99
2016-12-21T12:07:37.948Z,99.99
2016-12-21T12:08:37.931Z,99.99
2016-12-21T12:09:37.913Z,99.99
2016-12-21T12:10:37.925Z,99.99
2016-12-21T12:11:37.880Z,99.99
2016-12-21T12:12:37.862Z,99.99
2016-12-21T12:13:37.847Z,99.99
2016-12-21T12:14:37.830Z,99.99
2016-12-21T12:15:37.812Z,99.99
2016-12-21T12:16:37.798Z,99.99
2016-12-21T12:17:37.778Z,99.99
2016-12-21T12:18:37.764Z,99.99
2016-12-21T12:19:37.744Z,99.99
2016-12-21T12:20:37.727Z,99.99
2016-12-21T12:21:37.710Z,99.99
2016-12-21T12:22:37.693Z,99.99
2016-12-21T12:23:37.675Z,99.99
2016-12-21T12:24:37.660Z,99.99
2016-12-21T12:25:37.643Z,99.99
2016-12-21T12:26:37.622Z,99.99
2016-12-21T12:27:37.607Z,99.99
2016-12-21T12:28:37.591Z,99.99
2016-12-21T12:29:37.574Z,99.99
2016-12-21T12:30:37.554Z,99.99
2016-12-21T12:31:37.538Z,99.99
2016-12-21T12:32:37.522Z,99.99
2016-12-21T12:33:37.506Z,99.99
2016-12-21T12:34:37.487Z,99.99
2016-12-21T12:35:37.471Z,99.99
2016-12-21T12:36:37.451Z,99.99
2016-12-21T12:37:37.750Z,99.99
2016-12-21T12:38:37.420Z,99.99
2016-12-21T12:39:37.401Z,99.99
2016-12-21T12:40:37.383Z,99.99
2016-12-21T12:41:37.366Z,99.99
2016-12-21T12:42:37.350Z,99.99
2016-12-21T12:43:37.337Z,99.99
2016-12-21T12:44:37.321Z,99.99
2016-12-21T12:45:37.306Z,99.99
2016-12-21T12:46:37.285Z,99.99
2016-12-21T12:47:37.285Z,99.99
2016-12-21T12:48:37.246Z,99.99
2016-12-21T12:49:37.230Z,99.99
2016-12-21T12:50:37.214Z,99.99
2016-12-21T12:51:37.194Z,99.99
2016-12-21T12:52:37.180Z,99.99
2016-12-21T12:53:37.163Z,99.99
2016-12-21T12:54:37.144Z,99.99
2016-12-21T12:55:37.127Z,99.99